createdAt,value
2019-05-15T00:01:14.594Z,27.30
2019-05-15T00:03:45.656Z,27.40
2019-05-15T00:06:18.879Z,27.40
2019-05-15T00:08:53.550Z,27.40
2019-05-15T00:11:24.946Z,27.40
2019-05-15T00:13:56.137Z,27.40
2019-05-15T00:16:30.026Z,27.40
2019-05-15T00:19:01.123Z,27.40
2019-05-15T00:21:33.691Z,27.40
2019-05-15T00:24:05.009Z,27.40
2019-05-15T00:26:38.362Z,27.40
2019-05-15T00:29:15.069Z,27.40
2019-05-15T00:31:40.804Z,27.40
2019-05-15T00:34:13.073Z,27.40
2019-05-15T00:36:44.206Z,27.50
2019-05-15T00:39:18.988Z,27.50
2019-05-15T00:41:54.334Z,27.50
2019-05-15T00:44:22.668Z,27.50
2019-05-15T00:46:53.721Z,27.50
2019-05-15T00:49:28.999Z,27.60
2019-05-15T00:51:59.698Z,27.60
2019-05-15T00:54:30.735Z,27.70
2019-05-15T00:57:01.859Z,27.70
2019-05-15T00:59:34.606Z,27.80
2019-05-15T01:02:05.550Z,27.80
2019-05-15T01:04:38.731Z,27.80
2019-05-15T01:07:09.445Z,27.90
2019-05-15T01:09:48.745Z,28.00
2019-05-15T01:12:21.436Z,28.00
2019-05-15T01:14:58.556Z,28.00
2019-05-15T01:17:30.563Z,28.10
2019-05-15T01:20:01.472Z,28.20
2019-05-15T01:22:33.653Z,28.20
2019-05-15T01:25:08.947Z,28.30
2019-05-15T01:27:48.807Z,28.30
2019-05-15T01:36:38.418Z,28.60
2019-05-15T01:39:11.974Z,28.60
2019-05-15T01:41:49.363Z,28.70
2019-05-15T01:44:22.790Z,28.70
2019-05-15T01:46:54.941Z,28.80
2019-05-15T01:49:29.419Z,28.80
2019-05-15T01:52:03.491Z,28.90
2019-05-15T01:54:34.994Z,28.90
2019-05-15T01:57:09.147Z,29.00
2019-05-15T01:59:53.718Z,29.00
2019-05-15T02:02:13.810Z,29.10
2019-05-15T02:04:45.323Z,29.10
2019-05-15T02:07:18.701Z,29.10
2019-05-15T02:09:49.791Z,29.20
2019-05-15T02:12:21.056Z,29.30
2019-05-15T02:14:52.883Z,29.40
2019-05-15T02:17:25.526Z,29.50
2019-05-15T02:19:58.594Z,29.60
2019-05-15T02:22:29.490Z,29.70
2019-05-15T02:25:02.538Z,29.70
2019-05-15T02:27:34.526Z,29.80
2019-05-15T02:32:45.974Z,29.90
2019-05-15T02:35:18.626Z,30.00
2019-05-15T02:37:49.972Z,30.00
2019-05-15T02:40:29.171Z,30.10
2019-05-15T02:42:59.198Z,30.10
2019-05-15T02:45:30.908Z,30.20
2019-05-15T02:48:02.197Z,30.20
2019-05-15T02:50:33.458Z,30.20
2019-05-15T02:53:04.669Z,30.20
2019-05-15T02:55:39.816Z,30.20
2019-05-15T02:58:09.890Z,30.20
2019-05-15T03:00:48.285Z,30.20
2019-05-15T03:03:14.303Z,30.20
2019-05-15T03:05:45.355Z,30.20
2019-05-15T03:08:19.546Z,30.20
2019-05-15T03:17:10.065Z,30.20
2019-05-15T03:19:41.341Z,30.20
2019-05-15T03:22:12.287Z,30.20
2019-05-15T03:24:44.716Z,30.30
2019-05-15T03:27:19.687Z,30.30
2019-05-15T03:29:49.892Z,30.30
2019-05-15T03:32:32.800Z,30.30
2019-05-15T03:35:03.511Z,30.30
2019-05-15T03:37:33.365Z,30.40
2019-05-15T03:40:01.775Z,30.30
2019-05-15T03:42:33.655Z,30.40
2019-05-15T03:45:05.536Z,30.40
2019-05-15T03:47:40.097Z,30.40
2019-05-15T03:50:10.209Z,30.40
2019-05-15T03:52:42.099Z,30.40
2019-05-15T03:55:14.324Z,30.40
2019-05-15T03:57:45.154Z,30.40
2019-05-15T04:00:19.342Z,30.40
2019-05-15T04:02:53.902Z,30.50
2019-05-15T04:05:25.655Z,30.50
2019-05-15T04:07:59.763Z,30.50
2019-05-15T04:10:30.910Z,30.60
2019-05-15T04:13:02.283Z,30.60
2019-05-15T04:15:34.138Z,30.60
2019-05-15T04:18:09.224Z,30.70
2019-05-15T04:20:42.512Z,30.70
2019-05-15T04:23:19.164Z,30.80
2019-05-15T04:25:52.994Z,30.90
2019-05-15T04:28:31.065Z,30.90
2019-05-15T04:31:02.174Z,31.00
2019-05-15T04:43:44.347Z,31.60
2019-05-15T04:46:19.666Z,31.80
2019-05-15T04:48:51.419Z,31.90
2019-05-15T04:51:30.205Z,32.10
2019-05-15T04:54:00.998Z,32.10
2019-05-15T04:56:35.704Z,32.20
2019-05-15T04:59:11.390Z,32.10
2019-05-15T05:01:43.301Z,32.20
2019-05-15T05:04:15.391Z,32.20
2019-05-15T05:06:49.487Z,32.30
2019-05-15T05:12:29.177Z,32.30
2019-05-15T05:15:00.744Z,32.40
2019-05-15T05:17:39.076Z,32.40
2019-05-15T05:20:12.876Z,32.40
2019-05-15T05:22:48.636Z,32.50
2019-05-15T05:25:20.291Z,32.60
2019-05-15T05:27:51.244Z,32.70
2019-05-15T05:30:25.606Z,32.80
2019-05-15T05:35:44.048Z,32.90
2019-05-15T05:38:15.175Z,32.90
2019-05-15T05:40:49.153Z,33.00
2019-05-15T05:43:18.678Z,33.10
2019-05-15T05:45:50.543Z,33.20
2019-05-15T05:48:29.286Z,33.20
2019-05-15T05:51:00.049Z,33.20
2019-05-15T05:53:31.172Z,33.30
2019-05-15T05:56:02.236Z,33.30
2019-05-15T05:58:33.302Z,33.40
2019-05-15T06:01:05.905Z,33.40
2019-05-15T06:03:41.697Z,33.50
2019-05-15T06:06:12.902Z,33.50
2019-05-15T06:08:49.809Z,33.50
2019-05-15T06:11:58.182Z,33.60
2019-05-15T06:14:28.970Z,33.60
2019-05-15T06:17:00.270Z,33.60
2019-05-15T06:19:32.931Z,33.60
2019-05-15T06:22:15.248Z,33.70
2019-05-15T06:24:44.156Z,33.80
2019-05-15T06:27:15.316Z,33.80
2019-05-15T06:29:48.518Z,33.90
2019-05-15T06:32:19.674Z,33.90
2019-05-15T06:34:50.525Z,33.90
2019-05-15T06:37:24.144Z,33.90
2019-05-15T06:39:55.123Z,33.90
2019-05-15T06:42:28.807Z,33.90
2019-05-15T06:45:00.324Z,33.90
2019-05-15T06:47:32.169Z,34.00
2019-05-15T06:50:03.425Z,34.00
2019-05-15T06:52:34.597Z,34.00
2019-05-15T06:55:09.120Z,34.00
2019-05-15T06:57:40.659Z,34.00
2019-05-15T07:00:12.899Z,34.00
2019-05-15T07:09:03.726Z,34.10
2019-05-15T07:11:34.592Z,34.00
2019-05-15T07:14:08.669Z,34.00
2019-05-15T07:16:40.870Z,34.00
2019-05-15T07:19:15.581Z,34.00
2019-05-15T07:21:45.654Z,34.00
2019-05-15T07:24:18.256Z,34.00
2019-05-15T07:26:51.760Z,34.00
2019-05-15T07:29:24.087Z,34.00
2019-05-15T07:31:55.907Z,34.00
2019-05-15T07:34:28.397Z,34.00
2019-05-15T07:36:59.399Z,33.90
2019-05-15T07:39:30.380Z,33.80
2019-05-15T07:42:01.592Z,33.80
2019-05-15T07:44:32.604Z,33.80
2019-05-15T07:47:05.113Z,33.80
2019-05-15T07:49:38.628Z,33.70
2019-05-15T07:52:08.700Z,33.70
2019-05-15T07:54:41.234Z,33.60
2019-05-15T07:57:12.327Z,33.60
2019-05-15T07:59:43.373Z,33.60
2019-05-15T08:02:14.593Z,33.50
2019-05-15T08:04:48.139Z,33.40
2019-05-15T08:07:20.992Z,33.40
2019-05-15T08:09:52.389Z,33.30
2019-05-15T08:15:38.175Z,33.00
2019-05-15T08:18:12.674Z,32.70
2019-05-15T08:20:41.706Z,32.60
2019-05-15T08:23:12.793Z,32.30
2019-05-15T08:25:43.933Z,32.20
2019-05-15T08:28:15.608Z,32.10
2019-05-15T08:30:50.050Z,31.90
2019-05-15T08:33:22.267Z,31.70
2019-05-15T08:35:54.129Z,31.50
2019-05-15T08:38:25.619Z,31.30
2019-05-15T08:40:59.518Z,31.10
2019-05-15T08:43:31.703Z,30.90
2019-05-15T08:46:08.163Z,30.80
2019-05-15T08:48:38.388Z,30.70
2019-05-15T08:51:09.123Z,30.60
2019-05-15T08:53:40.158Z,30.50
2019-05-15T08:56:14.395Z,30.40
2019-05-15T08:58:43.448Z,30.30
2019-05-15T09:01:14.492Z,30.20
2019-05-15T09:03:49.063Z,30.10
2019-05-15T09:06:23.025Z,30.00
2019-05-15T09:08:54.489Z,30.10
2019-05-15T09:11:25.231Z,30.10
2019-05-15T09:13:59.488Z,30.10
2019-05-15T09:16:32.598Z,30.20
2019-05-15T09:19:03.601Z,30.30
2019-05-15T09:21:34.743Z,30.40
2019-05-15T09:24:12.615Z,30.40
2019-05-15T09:26:48.686Z,30.50
2019-05-15T09:29:28.870Z,30.60
2019-05-15T09:31:59.056Z,30.70
2019-05-15T09:34:46.380Z,30.70
2019-05-15T09:37:02.646Z,30.70
2019-05-15T09:39:38.111Z,30.70
2019-05-15T09:42:10.658Z,30.60
2019-05-15T09:44:42.006Z,30.70
2019-05-15T09:47:13.773Z,30.60
2019-05-15T09:49:45.366Z,30.70
2019-05-15T09:52:21.974Z,30.70
2019-05-15T09:54:52.807Z,30.60
2019-05-15T09:57:30.207Z,30.60
2019-05-15T10:00:00.334Z,30.50
2019-05-15T10:02:35.797Z,30.60
2019-05-15T10:05:11.366Z,30.50
2019-05-15T10:07:43.896Z,30.50
2019-05-15T10:10:23.765Z,30.50
2019-05-15T10:12:59.584Z,30.50
2019-05-15T10:15:32.061Z,30.40
2019-05-15T10:18:06.042Z,30.40
2019-05-15T10:20:37.238Z,30.40
2019-05-15T10:23:08.741Z,30.30
2019-05-15T10:25:39.671Z,30.20
2019-05-15T10:28:10.534Z,30.20
2019-05-15T10:30:41.734Z,30.10
2019-05-15T10:33:12.750Z,30.00
2019-05-15T10:35:43.640Z,30.00
2019-05-15T10:38:14.806Z,30.00
2019-05-15T10:41:04.068Z,30.00
2019-05-15T10:43:24.433Z,29.90
2019-05-15T10:45:55.326Z,30.00
2019-05-15T10:48:28.396Z,30.00
2019-05-15T10:51:06.248Z,29.90
2019-05-15T10:53:31.826Z,29.90
2019-05-15T10:56:02.935Z,30.00
2019-05-15T10:58:34.043Z,29.90
2019-05-15T11:01:05.151Z,29.90
2019-05-15T11:03:39.729Z,29.90
2019-05-15T11:06:09.967Z,29.80
2019-05-15T11:08:41.116Z,29.80
2019-05-15T11:11:12.108Z,29.80
2019-05-15T11:13:43.261Z,29.80
2019-05-15T11:16:18.572Z,29.80
2019-05-15T11:18:49.040Z,29.80
2019-05-15T11:21:20.300Z,29.70
2019-05-15T11:23:51.145Z,29.70
2019-05-15T11:26:22.281Z,29.70
2019-05-15T11:28:53.219Z,29.70
2019-05-15T11:31:24.945Z,29.70
2019-05-15T11:33:58.397Z,29.70
2019-05-15T11:36:28.939Z,29.60
2019-05-15T11:39:00.169Z,29.70
2019-05-15T11:41:31.030Z,29.70
2019-05-15T11:44:01.858Z,29.70
2019-05-15T11:46:33.052Z,29.70
2019-05-15T11:49:05.161Z,29.70
2019-05-15T11:51:38.245Z,29.70
2019-05-15T11:54:11.278Z,29.70
2019-05-15T11:56:48.712Z,29.70
2019-05-15T11:59:18.567Z,29.70
2019-05-15T12:01:49.718Z,29.70
2019-05-15T12:04:30.193Z,29.80
2019-05-15T12:06:59.732Z,29.70
2019-05-15T12:09:28.049Z,29.80
2019-05-15T12:12:00.908Z,29.80
2019-05-15T12:14:32.051Z,29.80
2019-05-15T12:17:11.430Z,29.80
2019-05-15T12:19:35.335Z,29.80
2019-05-15T12:22:06.346Z,29.80
2019-05-15T12:24:40.852Z,29.80
2019-05-15T12:27:17.724Z,29.80
2019-05-15T12:29:44.600Z,29.80
2019-05-15T12:34:49.432Z,29.70
2019-05-15T12:37:20.568Z,29.70
2019-05-15T13:00:13.106Z,29.40
2019-05-15T13:02:43.926Z,29.40
2019-05-15T13:05:14.987Z,29.40
2019-05-15T13:07:48.189Z,29.40
2019-05-15T13:10:19.189Z,29.30
2019-05-15T13:13:00.896Z,29.30
2019-05-15T13:15:22.406Z,29.30
2019-05-15T13:17:54.925Z,29.30
2019-05-15T13:20:25.873Z,29.20
2019-05-15T13:22:59.213Z,29.20
2019-05-15T13:25:29.249Z,29.20
2019-05-15T13:28:00.178Z,29.20
2019-05-15T13:30:31.246Z,29.10
2019-05-15T13:33:02.143Z,29.10
2019-05-15T13:35:33.101Z,29.10
2019-05-15T13:38:04.035Z,29.10
2019-05-15T13:40:38.131Z,29.10
2019-05-15T13:43:08.385Z,29.00
2019-05-15T13:45:39.622Z,29.00
2019-05-15T13:48:10.703Z,29.00
2019-05-15T13:50:41.658Z,29.00
2019-05-15T13:53:12.774Z,29.00
2019-05-15T13:55:48.390Z,29.10
2019-05-15T13:58:19.259Z,29.00
2019-05-15T14:00:50.375Z,29.10
2019-05-15T14:03:21.185Z,29.00
2019-05-15T14:05:53.175Z,29.00
2019-05-15T14:08:24.111Z,29.00
2019-05-15T14:10:55.452Z,29.00
2019-05-15T14:13:28.662Z,29.00
2019-05-15T14:16:01.416Z,29.10
2019-05-15T14:18:32.290Z,29.00
2019-05-15T14:21:03.370Z,29.00
2019-05-15T14:23:34.554Z,29.10
2019-05-15T14:26:15.176Z,29.00
2019-05-15T14:28:38.901Z,29.00
2019-05-15T14:31:10.003Z,29.00
2019-05-15T14:33:41.126Z,29.00
2019-05-15T14:36:12.109Z,29.00
2019-05-15T14:38:43.076Z,29.00
2019-05-15T14:41:13.995Z,29.00
2019-05-15T14:43:45.435Z,29.00
2019-05-15T14:46:18.395Z,29.00
2019-05-15T14:48:49.281Z,29.00
2019-05-15T14:51:20.572Z,29.00
2019-05-15T14:53:51.561Z,29.00
2019-05-15T14:56:22.821Z,29.00
2019-05-15T14:58:53.834Z,28.90
2019-05-15T15:01:24.811Z,28.90
2019-05-15T15:03:57.996Z,29.00
2019-05-15T15:06:28.436Z,28.90
2019-05-15T15:08:59.513Z,28.90
2019-05-15T15:11:30.715Z,28.90
2019-05-15T15:14:02.067Z,28.80
2019-05-15T15:16:33.111Z,28.90
2019-05-15T15:19:04.169Z,28.80
2019-05-15T15:21:38.154Z,28.80
2019-05-15T15:24:08.329Z,28.80
2019-05-15T15:26:41.880Z,28.70
2019-05-15T15:29:12.992Z,28.70
2019-05-15T15:31:44.044Z,28.70
2019-05-15T15:34:15.125Z,28.70
2019-05-15T15:36:48.325Z,28.70
2019-05-15T15:39:18.521Z,28.60
2019-05-15T15:41:49.606Z,28.60
2019-05-15T15:44:20.722Z,28.60
2019-05-15T15:46:52.502Z,28.60
2019-05-15T15:49:23.447Z,28.60
2019-05-15T15:51:54.339Z,28.60
2019-05-15T15:54:25.440Z,28.60
2019-05-15T15:56:56.372Z,28.50
2019-05-15T15:59:28.894Z,28.50
2019-05-15T16:01:59.922Z,28.50
2019-05-15T16:04:31.254Z,28.50
2019-05-15T16:07:02.268Z,28.50
2019-05-15T16:09:33.267Z,28.50
2019-05-15T16:12:04.502Z,28.50
2019-05-15T16:14:37.966Z,28.50
2019-05-15T16:17:08.627Z,28.50
2019-05-15T16:19:39.757Z,28.50
2019-05-15T16:22:10.701Z,28.50
2019-05-15T16:24:41.838Z,28.50
2019-05-15T16:27:12.534Z,28.50
2019-05-15T16:29:43.549Z,28.50
2019-05-15T16:32:14.523Z,28.50
2019-05-15T16:34:45.380Z,28.40
2019-05-15T16:37:27.201Z,28.40
2019-05-15T16:40:00.014Z,28.40
2019-05-15T16:42:30.892Z,28.40
2019-05-15T16:45:02.163Z,28.40
2019-05-15T16:47:33.301Z,28.40
2019-05-15T16:50:04.280Z,28.40
2019-05-15T16:52:35.565Z,28.30
2019-05-15T16:55:09.290Z,28.30
2019-05-15T16:57:40.869Z,28.30
2019-05-15T17:00:12.644Z,28.30
2019-05-15T17:02:44.003Z,28.20
2019-05-15T17:05:14.888Z,28.20
2019-05-15T17:07:45.811Z,28.20
2019-05-15T17:10:17.485Z,28.20
2019-05-15T17:12:49.237Z,28.20
2019-05-15T17:15:20.659Z,28.20
2019-05-15T17:17:51.738Z,28.20
2019-05-15T17:20:22.984Z,28.20
2019-05-15T17:22:54.241Z,28.20
2019-05-15T17:25:26.022Z,28.20
2019-05-15T17:27:58.407Z,28.20
2019-05-15T17:30:29.314Z,28.10
2019-05-15T17:33:00.737Z,28.10
2019-05-15T17:35:31.973Z,28.10
2019-05-15T17:38:02.821Z,28.10
2019-05-15T17:40:33.968Z,28.10
2019-05-15T17:43:04.912Z,28.00
2019-05-15T17:45:38.825Z,28.00
2019-05-15T17:48:09.626Z,28.00
2019-05-15T17:50:48.459Z,28.00
2019-05-15T17:53:13.246Z,28.00
2019-05-15T17:55:44.251Z,27.90
2019-05-15T17:58:15.981Z,27.90
2019-05-15T18:00:48.642Z,27.90
2019-05-15T18:03:19.482Z,27.90
2019-05-15T18:05:50.537Z,27.90
2019-05-15T18:08:21.855Z,27.80
2019-05-15T18:10:52.666Z,27.80
2019-05-15T18:13:23.460Z,27.80
2019-05-15T18:15:54.475Z,27.80
2019-05-15T18:18:25.593Z,27.80
2019-05-15T18:20:58.107Z,27.80
2019-05-15T18:23:29.512Z,27.80
2019-05-15T18:26:00.566Z,27.80
2019-05-15T18:28:31.568Z,27.80
2019-05-15T18:31:02.637Z,27.70
2019-05-15T18:33:33.639Z,27.70
2019-05-15T18:36:04.769Z,27.70
2019-05-15T18:38:35.691Z,27.70
2019-05-15T18:41:08.909Z,27.70
2019-05-15T18:43:39.409Z,27.70
2019-05-15T18:46:10.214Z,27.70
2019-05-15T18:48:41.125Z,27.70
2019-05-15T18:51:12.072Z,27.60
2019-05-15T18:53:43.197Z,27.60
2019-05-15T18:56:14.148Z,27.60
2019-05-15T18:58:45.129Z,27.60
2019-05-15T19:01:17.666Z,27.50
2019-05-15T19:03:48.381Z,27.50
2019-05-15T19:06:19.440Z,27.50
2019-05-15T19:08:53.606Z,27.50
2019-05-15T19:11:24.612Z,27.50
2019-05-15T19:13:55.591Z,27.50
2019-05-15T19:16:28.263Z,27.50
2019-05-15T19:18:59.014Z,27.50
2019-05-15T19:21:30.354Z,27.50
2019-05-15T19:24:01.341Z,27.50
2019-05-15T19:26:32.341Z,27.50
2019-05-15T19:29:03.179Z,27.50
2019-05-15T19:31:34.364Z,27.50
2019-05-15T19:34:08.351Z,27.50
2019-05-15T19:36:38.330Z,27.50
2019-05-15T19:39:09.494Z,27.50
2019-05-15T19:41:40.372Z,27.50
2019-05-15T19:44:11.204Z,27.50
2019-05-15T19:46:42.419Z,27.50
2019-05-15T19:49:13.642Z,27.50
2019-05-15T19:51:44.732Z,27.50
2019-05-15T19:54:15.633Z,27.60
2019-05-15T19:56:48.178Z,27.50
2019-05-15T19:59:22.374Z,27.50
2019-05-15T20:01:51.617Z,27.50
2019-05-15T20:04:23.639Z,27.50
2019-05-15T20:06:54.759Z,27.50
2019-05-15T20:09:27.694Z,27.50
2019-05-15T20:11:58.521Z,27.50
2019-05-15T20:14:29.637Z,27.50
2019-05-15T20:17:01.011Z,27.50
2019-05-15T20:19:31.937Z,27.40
2019-05-15T20:22:03.071Z,27.50
2019-05-15T20:24:34.148Z,27.50
2019-05-15T20:27:05.119Z,27.50
2019-05-15T20:29:38.207Z,27.50
2019-05-15T20:32:08.288Z,27.50
2019-05-15T20:34:39.150Z,27.50
2019-05-15T20:37:10.547Z,27.40
2019-05-15T20:39:41.526Z,27.40
2019-05-15T20:42:12.622Z,27.40
2019-05-15T20:44:43.803Z,27.40
2019-05-15T20:47:14.734Z,27.40
2019-05-15T20:49:45.725Z,27.30
2019-05-15T20:52:20.853Z,27.30
2019-05-15T20:54:51.211Z,27.30
2019-05-15T20:57:21.280Z,27.30
2019-05-15T20:59:52.653Z,27.30
2019-05-15T21:02:23.756Z,27.30
2019-05-15T21:04:54.802Z,27.30
2019-05-15T21:07:35.789Z,27.20
2019-05-15T21:09:58.807Z,27.20
2019-05-15T21:12:29.918Z,27.20
2019-05-15T21:15:01.218Z,27.20
2019-05-15T21:17:32.429Z,27.20
2019-05-15T21:20:03.425Z,27.20
2019-05-15T21:22:34.471Z,27.20
2019-05-15T21:25:05.446Z,27.20
2019-05-15T21:27:41.214Z,27.20
2019-05-15T21:30:09.400Z,27.20
2019-05-15T21:32:40.631Z,27.20
2019-05-15T21:35:11.885Z,27.20
2019-05-15T21:37:42.845Z,27.20
2019-05-15T21:40:15.026Z,27.20
2019-05-15T21:42:48.860Z,27.20
2019-05-15T21:45:18.719Z,27.10
2019-05-15T21:47:51.913Z,27.10
2019-05-15T21:50:22.937Z,27.20
2019-05-15T21:52:54.106Z,27.10
2019-05-15T21:55:25.264Z,27.10
2019-05-15T21:57:57.719Z,27.10
2019-05-15T22:00:33.309Z,27.10
2019-05-15T22:03:04.581Z,27.10
2019-05-15T22:05:35.681Z,27.00
2019-05-15T22:08:07.815Z,27.10
2019-05-15T22:10:39.202Z,27.00
2019-05-15T22:13:10.286Z,27.00
2019-05-15T22:15:43.047Z,27.00
2019-05-15T22:18:13.822Z,27.00
2019-05-15T22:20:44.750Z,27.00
2019-05-15T22:23:15.883Z,27.00
2019-05-15T22:25:51.343Z,27.00
2019-05-15T22:28:20.785Z,27.00
2019-05-15T22:30:51.589Z,27.00
2019-05-15T22:33:22.705Z,27.00
2019-05-15T22:35:53.979Z,27.00
2019-05-15T22:38:24.849Z,27.00
2019-05-15T22:40:56.935Z,27.00
2019-05-15T22:43:28.835Z,27.00
2019-05-15T22:46:00.803Z,27.00
2019-05-15T22:48:32.021Z,27.00
2019-05-15T22:51:07.653Z,27.00
2019-05-15T22:53:38.746Z,27.00
2019-05-15T22:56:09.626Z,27.00
2019-05-15T22:58:40.639Z,27.00
2019-05-15T23:01:11.753Z,27.00
2019-05-15T23:03:42.823Z,27.00
2019-05-15T23:06:13.735Z,27.10
2019-05-15T23:08:44.798Z,27.10
2019-05-15T23:11:18.234Z,27.10
2019-05-15T23:13:49.011Z,27.10
2019-05-15T23:16:20.243Z,27.10
2019-05-15T23:18:51.123Z,27.10
2019-05-15T23:21:28.826Z,27.10
2019-05-15T23:24:01.554Z,27.10
2019-05-15T23:26:32.734Z,27.10
2019-05-15T23:29:03.730Z,27.10
2019-05-15T23:31:35.787Z,27.10
2019-05-15T23:34:08.181Z,27.10
2019-05-15T23:36:39.194Z,27.20
2019-05-15T23:39:12.054Z,27.20
2019-05-15T23:41:42.933Z,27.20
2019-05-15T23:44:19.882Z,27.20
2019-05-15T23:46:51.008Z,27.20
2019-05-15T23:49:21.975Z,27.30
2019-05-15T23:51:52.932Z,27.30
2019-05-15T23:54:23.949Z,27.30
2019-05-15T23:56:55.025Z,27.40
2019-05-15T23:59:28.070Z,27.40
